sensor_id;sensor_type;location;lat;lon;timestamp;P1;durP1;ratioP1;P2;durP2;ratioP2
71606;SDS011;60641;53.556;9.914;2022-10-16T00:00:40;8.30;;;3.90;;
71606;SDS011;60641;53.556;9.914;2022-10-16T00:03:27;8.40;;;4.00;;
71606;SDS011;60641;53.556;9.914;2022-10-16T00:05:53;9.70;;;4.00;;
71606;SDS011;60641;53.556;9.914;2022-10-16T00:08:19;9.90;;;3.60;;
71606;SDS011;60641;53.556;9.914;2022-10-16T00:10:46;9.00;;;3.40;;
71606;SDS011;60641;53.556;9.914;2022-10-16T00:13:12;9.30;;;3.50;;
71606;SDS011;60641;53.556;9.914;2022-10-16T00:15:38;7.30;;;2.90;;
71606;SDS011;60641;53.556;9.914;2022-10-16T00:18:06;6.20;;;2.80;;
71606;SDS011;60641;53.556;9.914;2022-10-16T00:20:35;9.10;;;2.80;;
71606;SDS011;60641;53.556;9.914;2022-10-16T00:23:03;6.40;;;2.70;;
71606;SDS011;60641;53.556;9.914;2022-10-16T00:25:31;8.50;;;2.70;;
71606;SDS011;60641;53.556;9.914;2022-10-16T00:27:59;13.10;;;2.60;;
71606;SDS011;60641;53.556;9.914;2022-10-16T00:30:26;7.60;;;2.50;;
71606;SDS011;60641;53.556;9.914;2022-10-16T00:32:54;4.80;;;2.00;;
71606;SDS011;60641;53.556;9.914;2022-10-16T00:35:20;8.50;;;2.30;;
71606;SDS011;60641;53.556;9.914;2022-10-16T00:37:47;6.90;;;2.60;;
71606;SDS011;60641;53.556;9.914;2022-10-16T00:40:13;6.90;;;2.00;;
71606;SDS011;60641;53.556;9.914;2022-10-16T00:42:39;6.20;;;2.20;;
71606;SDS011;60641;53.556;9.914;2022-10-16T00:45:06;6.30;;;1.80;;
71606;SDS011;60641;53.556;9.914;2022-10-16T00:47:38;9.20;;;2.10;;
71606;SDS011;60641;53.556;9.914;2022-10-16T00:52:56;4.70;;;1.80;;
71606;SDS011;60641;53.556;9.914;2022-10-16T00:55:24;7.00;;;1.70;;
71606;SDS011;60641;53.556;9.914;2022-10-16T00:57:51;5.60;;;1.80;;
71606;SDS011;60641;53.556;9.914;2022-10-16T01:00:19;4.90;;;1.60;;
71606;SDS011;60641;53.556;9.914;2022-10-16T01:02:52;6.60;;;1.70;;
71606;SDS011;60641;53.556;9.914;2022-10-16T01:05:23;4.90;;;1.70;;
71606;SDS011;60641;53.556;9.914;2022-10-16T01:10:38;7.30;;;1.50;;
71606;SDS011;60641;53.556;9.914;2022-10-16T01:13:13;7.50;;;1.60;;
71606;SDS011;60641;53.556;9.914;2022-10-16T01:16:01;4.10;;;1.50;;
71606;SDS011;60641;53.556;9.914;2022-10-16T01:18:42;5.50;;;1.40;;
71606;SDS011;60641;53.556;9.914;2022-10-16T01:21:10;3.50;;;1.30;;
71606;SDS011;60641;53.556;9.914;2022-10-16T05:19:08;7.50;;;1.90;;
71606;SDS011;60641;53.556;9.914;2022-10-16T05:21:34;4.90;;;1.50;;
71606;SDS011;60641;53.556;9.914;2022-10-16T05:24:00;11.50;;;1.70;;
71606;SDS011;60641;53.556;9.914;2022-10-16T05:26:27;7.10;;;1.70;;
71606;SDS011;60641;53.556;9.914;2022-10-16T05:28:53;4.90;;;1.70;;
71606;SDS011;60641;53.556;9.914;2022-10-16T05:31:19;6.30;;;1.90;;
71606;SDS011;60641;53.556;9.914;2022-10-16T05:33:46;8.70;;;1.80;;
71606;SDS011;60641;53.556;9.914;2022-10-16T05:36:12;5.40;;;1.40;;
71606;SDS011;60641;53.556;9.914;2022-10-16T05:38:39;9.50;;;1.70;;
71606;SDS011;60641;53.556;9.914;2022-10-16T05:41:06;6.40;;;1.50;;
71606;SDS011;60641;53.556;9.914;2022-10-16T05:43:32;6.20;;;1.80;;
71606;SDS011;60641;53.556;9.914;2022-10-16T05:46:07;6.60;;;1.60;;
71606;SDS011;60641;53.556;9.914;2022-10-16T05:48:34;6.80;;;1.40;;
71606;SDS011;60641;53.556;9.914;2022-10-16T05:51:01;6.20;;;1.50;;
71606;SDS011;60641;53.556;9.914;2022-10-16T05:53:30;7.30;;;1.60;;
71606;SDS011;60641;53.556;9.914;2022-10-16T05:55:58;5.10;;;1.40;;
71606;SDS011;60641;53.556;9.914;2022-10-16T05:58:25;4.90;;;1.50;;
71606;SDS011;60641;53.556;9.914;2022-10-16T06:00:54;6.30;;;1.40;;
71606;SDS011;60641;53.556;9.914;2022-10-16T06:03:21;4.80;;;1.80;;
71606;SDS011;60641;53.556;9.914;2022-10-16T06:05:48;8.90;;;1.40;;
71606;SDS011;60641;53.556;9.914;2022-10-16T06:08:14;8.10;;;1.70;;
71606;SDS011;60641;53.556;9.914;2022-10-16T06:10:41;8.50;;;1.40;;
71606;SDS011;60641;53.556;9.914;2022-10-16T06:13:08;7.20;;;2.30;;
71606;SDS011;60641;53.556;9.914;2022-10-16T06:15:34;6.40;;;1.70;;
71606;SDS011;60641;53.556;9.914;2022-10-16T06:18:00;5.10;;;1.30;;
71606;SDS011;60641;53.556;9.914;2022-10-16T06:20:27;7.70;;;1.40;;
71606;SDS011;60641;53.556;9.914;2022-10-16T06:22:53;6.70;;;1.30;;
71606;SDS011;60641;53.556;9.914;2022-10-16T06:25:19;8.00;;;2.50;;
71606;SDS011;60641;53.556;9.914;2022-10-16T06:27:46;5.50;;;1.60;;
71606;SDS011;60641;53.556;9.914;2022-10-16T06:30:12;6.20;;;1.60;;
71606;SDS011;60641;53.556;9.914;2022-10-16T06:32:39;4.20;;;1.30;;
71606;SDS011;60641;53.556;9.914;2022-10-16T06:35:05;4.90;;;1.60;;
71606;SDS011;60641;53.556;9.914;2022-10-16T06:37:32;4.40;;;1.40;;
71606;SDS011;60641;53.556;9.914;2022-10-16T06:39:58;6.80;;;1.60;;
71606;SDS011;60641;53.556;9.914;2022-10-16T06:42:26;4.70;;;1.30;;
71606;SDS011;60641;53.556;9.914;2022-10-16T06:44:52;6.90;;;1.60;;
71606;SDS011;60641;53.556;9.914;2022-10-16T06:47:19;8.20;;;1.50;;
71606;SDS011;60641;53.556;9.914;2022-10-16T06:49:45;7.00;;;1.80;;
71606;SDS011;60641;53.556;9.914;2022-10-16T06:52:11;6.60;;;2.40;;
71606;SDS011;60641;53.556;9.914;2022-10-16T06:54:38;7.00;;;1.90;;
71606;SDS011;60641;53.556;9.914;2022-10-16T06:57:04;9.00;;;2.00;;
71606;SDS011;60641;53.556;9.914;2022-10-16T06:59:31;6.90;;;1.70;;
71606;SDS011;60641;53.556;9.914;2022-10-16T07:01:57;6.80;;;1.80;;
71606;SDS011;60641;53.556;9.914;2022-10-16T07:04:23;5.80;;;1.60;;
71606;SDS011;60641;53.556;9.914;2022-10-16T07:06:50;6.80;;;1.80;;
71606;SDS011;60641;53.556;9.914;2022-10-16T07:09:17;8.40;;;2.10;;
71606;SDS011;60641;53.556;9.914;2022-10-16T07:11:43;7.40;;;1.80;;
71606;SDS011;60641;53.556;9.914;2022-10-16T07:14:16;5.50;;;1.80;;
71606;SDS011;60641;53.556;9.914;2022-10-16T07:16:44;8.50;;;2.00;;
71606;SDS011;60641;53.556;9.914;2022-10-16T07:19:10;5.30;;;1.70;;
71606;SDS011;60641;53.556;9.914;2022-10-16T07:21:40;4.70;;;1.70;;
71606;SDS011;60641;53.556;9.914;2022-10-16T07:24:11;5.10;;;1.70;;
71606;SDS011;60641;53.556;9.914;2022-10-16T07:26:40;6.20;;;1.90;;
71606;SDS011;60641;53.556;9.914;2022-10-16T07:29:12;6.50;;;1.70;;
71606;SDS011;60641;53.556;9.914;2022-10-16T07:31:42;6.00;;;2.00;;
71606;SDS011;60641;53.556;9.914;2022-10-16T07:34:10;5.60;;;1.90;;
71606;SDS011;60641;53.556;9.914;2022-10-16T07:36:37;6.10;;;1.90;;
71606;SDS011;60641;53.556;9.914;2022-10-16T07:39:04;6.40;;;2.90;;
71606;SDS011;60641;53.556;9.914;2022-10-16T07:41:31;8.70;;;2.20;;
71606;SDS011;60641;53.556;9.914;2022-10-16T07:43:58;5.40;;;1.80;;
71606;SDS011;60641;53.556;9.914;2022-10-16T07:46:28;5.90;;;2.10;;
71606;SDS011;60641;53.556;9.914;2022-10-16T07:48:54;7.00;;;2.30;;
71606;SDS011;60641;53.556;9.914;2022-10-16T07:51:21;6.40;;;2.00;;
71606;SDS011;60641;53.556;9.914;2022-10-16T07:53:49;6.50;;;2.00;;
71606;SDS011;60641;53.556;9.914;2022-10-16T07:56:17;6.80;;;2.00;;
71606;SDS011;60641;53.556;9.914;2022-10-16T07:58:44;7.70;;;2.00;;
71606;SDS011;60641;53.556;9.914;2022-10-16T08:01:11;5.90;;;1.70;;
71606;SDS011;60641;53.556;9.914;2022-10-16T08:03:42;5.80;;;1.70;;
71606;SDS011;60641;53.556;9.914;2022-10-16T08:06:09;7.10;;;1.80;;
71606;SDS011;60641;53.556;9.914;2022-10-16T08:08:36;6.70;;;1.80;;
71606;SDS011;60641;53.556;9.914;2022-10-16T08:11:02;6.60;;;1.90;;
71606;SDS011;60641;53.556;9.914;2022-10-16T08:13:30;6.60;;;1.90;;
71606;SDS011;60641;53.556;9.914;2022-10-16T08:15:57;7.50;;;2.10;;
71606;SDS011;60641;53.556;9.914;2022-10-16T08:18:23;5.80;;;1.80;;
71606;SDS011;60641;53.556;9.914;2022-10-16T08:20:56;8.00;;;2.20;;
71606;SDS011;60641;53.556;9.914;2022-10-16T08:23:24;5.40;;;1.70;;
71606;SDS011;60641;53.556;9.914;2022-10-16T08:25:52;6.80;;;1.80;;
71606;SDS011;60641;53.556;9.914;2022-10-16T08:28:22;5.20;;;1.40;;
71606;SDS011;60641;53.556;9.914;2022-10-16T08:30:49;4.00;;;1.60;;
71606;SDS011;60641;53.556;9.914;2022-10-16T08:33:15;6.70;;;2.00;;
71606;SDS011;60641;53.556;9.914;2022-10-16T08:35:42;6.40;;;1.80;;
71606;SDS011;60641;53.556;9.914;2022-10-16T08:38:12;6.40;;;1.60;;
71606;SDS011;60641;53.556;9.914;2022-10-16T08:40:38;6.10;;;2.00;;
71606;SDS011;60641;53.556;9.914;2022-10-16T08:48:47;6.20;;;1.50;;
71606;SDS011;60641;53.556;9.914;2022-10-16T08:51:19;6.50;;;1.80;;
71606;SDS011;60641;53.556;9.914;2022-10-16T08:56:20;4.80;;;1.60;;
71606;SDS011;60641;53.556;9.914;2022-10-16T08:58:57;10.20;;;2.00;;
71606;SDS011;60641;53.556;9.914;2022-10-16T09:01:25;5.00;;;1.50;;
71606;SDS011;60641;53.556;9.914;2022-10-16T09:04:09;5.60;;;1.70;;
71606;SDS011;60641;53.556;9.914;2022-10-16T09:06:59;4.50;;;1.40;;
71606;SDS011;60641;53.556;9.914;2022-10-16T09:09:50;6.00;;;1.60;;
71606;SDS011;60641;53.556;9.914;2022-10-16T09:17:49;5.50;;;1.20;;
71606;SDS011;60641;53.556;9.914;2022-10-16T09:23:16;3.80;;;1.20;;
71606;SDS011;60641;53.556;9.914;2022-10-16T09:25:56;4.70;;;1.10;;
71606;SDS011;60641;53.556;9.914;2022-10-16T09:28:24;3.30;;;1.00;;
71606;SDS011;60641;53.556;9.914;2022-10-16T09:30:50;6.10;;;1.10;;
71606;SDS011;60641;53.556;9.914;2022-10-16T09:33:21;5.20;;;1.30;;
71606;SDS011;60641;53.556;9.914;2022-10-16T09:35:55;4.20;;;0.90;;
71606;SDS011;60641;53.556;9.914;2022-10-16T09:38:28;4.80;;;0.90;;
71606;SDS011;60641;53.556;9.914;2022-10-16T09:40:57;4.40;;;1.20;;
71606;SDS011;60641;53.556;9.914;2022-10-16T09:43:25;8.50;;;1.90;;
71606;SDS011;60641;53.556;9.914;2022-10-16T09:46:01;10.20;;;1.70;;
71606;SDS011;60641;53.556;9.914;2022-10-16T09:48:49;5.90;;;1.50;;
71606;SDS011;60641;53.556;9.914;2022-10-16T09:51:21;3.40;;;1.00;;
71606;SDS011;60641;53.556;9.914;2022-10-16T09:53:54;7.60;;;1.40;;
71606;SDS011;60641;53.556;9.914;2022-10-16T09:56:26;4.40;;;1.00;;
71606;SDS011;60641;53.556;9.914;2022-10-16T09:58:59;5.00;;;1.00;;
71606;SDS011;60641;53.556;9.914;2022-10-16T10:01:31;4.90;;;1.30;;
71606;SDS011;60641;53.556;9.914;2022-10-16T10:04:03;3.40;;;1.00;;
71606;SDS011;60641;53.556;9.914;2022-10-16T10:06:34;3.80;;;1.10;;
71606;SDS011;60641;53.556;9.914;2022-10-16T10:11:54;5.30;;;1.00;;
71606;SDS011;60641;53.556;9.914;2022-10-16T10:17:28;4.90;;;1.20;;
71606;SDS011;60641;53.556;9.914;2022-10-16T10:19:55;18.90;;;2.80;;
71606;SDS011;60641;53.556;9.914;2022-10-16T10:24:57;4.90;;;1.10;;
71606;SDS011;60641;53.556;9.914;2022-10-16T10:28:06;6.10;;;1.10;;
71606;SDS011;60641;53.556;9.914;2022-10-16T10:35:54;4.60;;;1.00;;
71606;SDS011;60641;53.556;9.914;2022-10-16T10:41:18;7.00;;;1.50;;
71606;SDS011;60641;53.556;9.914;2022-10-16T10:46:26;3.90;;;0.60;;
71606;SDS011;60641;53.556;9.914;2022-10-16T10:49:13;4.60;;;0.80;;
71606;SDS011;60641;53.556;9.914;2022-10-16T10:54:41;3.80;;;0.80;;
71606;SDS011;60641;53.556;9.914;2022-10-16T10:57:48;6.40;;;1.00;;
71606;SDS011;60641;53.556;9.914;2022-10-16T11:08:52;5.10;;;0.90;;
71606;SDS011;60641;53.556;9.914;2022-10-16T11:11:25;3.50;;;0.90;;
71606;SDS011;60641;53.556;9.914;2022-10-16T11:14:03;4.60;;;0.90;;
71606;SDS011;60641;53.556;9.914;2022-10-16T11:16:37;6.50;;;1.10;;
71606;SDS011;60641;53.556;9.914;2022-10-16T11:22:05;3.50;;;0.60;;
71606;SDS011;60641;53.556;9.914;2022-10-16T11:27:40;2.70;;;0.70;;
71606;SDS011;60641;53.556;9.914;2022-10-16T11:30:18;4.90;;;0.70;;
71606;SDS011;60641;53.556;9.914;2022-10-16T11:32:52;6.40;;;0.80;;
71606;SDS011;60641;53.556;9.914;2022-10-16T11:35:25;6.70;;;0.80;;
71606;SDS011;60641;53.556;9.914;2022-10-16T11:37:58;7.50;;;0.90;;
71606;SDS011;60641;53.556;9.914;2022-10-16T11:40:29;4.70;;;0.60;;
71606;SDS011;60641;53.556;9.914;2022-10-16T11:43:34;6.40;;;0.80;;
71606;SDS011;60641;53.556;9.914;2022-10-16T11:45:55;7.20;;;0.90;;
71606;SDS011;60641;53.556;9.914;2022-10-16T11:51:31;4.60;;;1.00;;
71606;SDS011;60641;53.556;9.914;2022-10-16T11:54:08;5.30;;;1.00;;
71606;SDS011;60641;53.556;9.914;2022-10-16T11:56:44;4.00;;;0.80;;
71606;SDS011;60641;53.556;9.914;2022-10-16T12:01:52;4.70;;;0.90;;
71606;SDS011;60641;53.556;9.914;2022-10-16T12:04:29;6.80;;;0.90;;
71606;SDS011;60641;53.556;9.914;2022-10-16T12:07:07;5.70;;;0.80;;
71606;SDS011;60641;53.556;9.914;2022-10-16T12:09:36;7.40;;;1.00;;
71606;SDS011;60641;53.556;9.914;2022-10-16T12:12:04;6.10;;;1.00;;
71606;SDS011;60641;53.556;9.914;2022-10-16T12:14:38;4.80;;;0.60;;
71606;SDS011;60641;53.556;9.914;2022-10-16T12:17:23;3.90;;;0.70;;
71606;SDS011;60641;53.556;9.914;2022-10-16T12:20:26;5.40;;;0.80;;
71606;SDS011;60641;53.556;9.914;2022-10-16T12:22:50;5.90;;;0.80;;
71606;SDS011;60641;53.556;9.914;2022-10-16T12:28:26;4.50;;;0.90;;
71606;SDS011;60641;53.556;9.914;2022-10-16T12:30:55;4.60;;;1.00;;
71606;SDS011;60641;53.556;9.914;2022-10-16T12:33:27;7.00;;;0.90;;
71606;SDS011;60641;53.556;9.914;2022-10-16T12:35:55;6.80;;;0.90;;
71606;SDS011;60641;53.556;9.914;2022-10-16T12:41:11;8.60;;;0.80;;
71606;SDS011;60641;53.556;9.914;2022-10-16T12:43:41;4.70;;;1.20;;
71606;SDS011;60641;53.556;9.914;2022-10-16T12:48:36;5.40;;;0.80;;
71606;SDS011;60641;53.556;9.914;2022-10-16T12:53:59;6.70;;;1.00;;
71606;SDS011;60641;53.556;9.914;2022-10-16T12:59:22;5.80;;;0.80;;
71606;SDS011;60641;53.556;9.914;2022-10-16T13:10:28;6.10;;;1.00;;
71606;SDS011;60641;53.556;9.914;2022-10-16T13:15:36;3.80;;;0.80;;
71606;SDS011;60641;53.556;9.914;2022-10-16T13:28:44;5.40;;;0.80;;
71606;SDS011;60641;53.556;9.914;2022-10-16T13:31:13;7.10;;;1.20;;
71606;SDS011;60641;53.556;9.914;2022-10-16T13:33:45;5.90;;;1.00;;
71606;SDS011;60641;53.556;9.914;2022-10-16T13:36:18;6.00;;;0.80;;
71606;SDS011;60641;53.556;9.914;2022-10-16T13:38:46;5.60;;;1.40;;
71606;SDS011;60641;53.556;9.914;2022-10-16T13:41:14;5.40;;;1.00;;
71606;SDS011;60641;53.556;9.914;2022-10-16T13:43:46;6.70;;;1.00;;
71606;SDS011;60641;53.556;9.914;2022-10-16T13:46:16;4.80;;;0.80;;
71606;SDS011;60641;53.556;9.914;2022-10-16T13:48:43;7.90;;;1.00;;
71606;SDS011;60641;53.556;9.914;2022-10-16T13:51:12;5.30;;;0.70;;
71606;SDS011;60641;53.556;9.914;2022-10-16T13:53:39;4.60;;;0.80;;
71606;SDS011;60641;53.556;9.914;2022-10-16T13:56:07;5.10;;;0.70;;
71606;SDS011;60641;53.556;9.914;2022-10-16T13:58:37;3.90;;;0.80;;
71606;SDS011;60641;53.556;9.914;2022-10-16T14:01:04;5.70;;;0.80;;
71606;SDS011;60641;53.556;9.914;2022-10-16T14:03:32;6.00;;;0.90;;
71606;SDS011;60641;53.556;9.914;2022-10-16T14:06:00;7.30;;;1.20;;
71606;SDS011;60641;53.556;9.914;2022-10-16T14:08:28;4.20;;;1.00;;
71606;SDS011;60641;53.556;9.914;2022-10-16T14:10:56;6.90;;;0.90;;
71606;SDS011;60641;53.556;9.914;2022-10-16T14:13:39;3.30;;;0.70;;
71606;SDS011;60641;53.556;9.914;2022-10-16T14:16:10;3.30;;;0.70;;
71606;SDS011;60641;53.556;9.914;2022-10-16T14:18:37;4.90;;;0.70;;
71606;SDS011;60641;53.556;9.914;2022-10-16T14:21:11;6.00;;;1.00;;
71606;SDS011;60641;53.556;9.914;2022-10-16T14:23:39;6.50;;;1.10;;
71606;SDS011;60641;53.556;9.914;2022-10-16T14:28:36;5.30;;;0.90;;
71606;SDS011;60641;53.556;9.914;2022-10-16T14:31:17;4.80;;;1.00;;
71606;SDS011;60641;53.556;9.914;2022-10-16T14:33:58;6.30;;;1.00;;
71606;SDS011;60641;53.556;9.914;2022-10-16T14:36:26;6.90;;;0.90;;
71606;SDS011;60641;53.556;9.914;2022-10-16T14:41:30;10.30;;;1.40;;
71606;SDS011;60641;53.556;9.914;2022-10-16T14:44:02;5.90;;;0.90;;
71606;SDS011;60641;53.556;9.914;2022-10-16T14:46:31;6.90;;;1.10;;
71606;SDS011;60641;53.556;9.914;2022-10-16T14:49:05;4.60;;;0.70;;
71606;SDS011;60641;53.556;9.914;2022-10-16T14:51:43;5.10;;;1.00;;
71606;SDS011;60641;53.556;9.914;2022-10-16T14:54:14;6.10;;;0.80;;
71606;SDS011;60641;53.556;9.914;2022-10-16T14:56:49;7.50;;;0.80;;
71606;SDS011;60641;53.556;9.914;2022-10-16T14:59:18;8.20;;;0.90;;
71606;SDS011;60641;53.556;9.914;2022-10-16T15:01:47;6.00;;;0.90;;
71606;SDS011;60641;53.556;9.914;2022-10-16T15:04:14;7.50;;;1.50;;
71606;SDS011;60641;53.556;9.914;2022-10-16T15:06:41;5.10;;;1.10;;
71606;SDS011;60641;53.556;9.914;2022-10-16T15:09:08;8.30;;;1.20;;
71606;SDS011;60641;53.556;9.914;2022-10-16T15:11:34;5.20;;;0.90;;
71606;SDS011;60641;53.556;9.914;2022-10-16T15:14:01;4.40;;;1.10;;
71606;SDS011;60641;53.556;9.914;2022-10-16T15:16:29;5.20;;;0.80;;
71606;SDS011;60641;53.556;9.914;2022-10-16T15:18:56;5.70;;;1.00;;
71606;SDS011;60641;53.556;9.914;2022-10-16T15:21:28;5.90;;;0.90;;
71606;SDS011;60641;53.556;9.914;2022-10-16T15:23:56;7.90;;;1.00;;
71606;SDS011;60641;53.556;9.914;2022-10-16T15:26:24;8.40;;;1.10;;
71606;SDS011;60641;53.556;9.914;2022-10-16T15:28:51;6.60;;;0.80;;
71606;SDS011;60641;53.556;9.914;2022-10-16T15:31:18;6.10;;;0.80;;
71606;SDS011;60641;53.556;9.914;2022-10-16T15:33:45;8.30;;;1.00;;
71606;SDS011;60641;53.556;9.914;2022-10-16T15:36:17;4.40;;;0.80;;
71606;SDS011;60641;53.556;9.914;2022-10-16T15:38:43;6.70;;;0.90;;
71606;SDS011;60641;53.556;9.914;2022-10-16T15:41:11;6.30;;;1.00;;
71606;SDS011;60641;53.556;9.914;2022-10-16T15:43:37;8.00;;;1.10;;
71606;SDS011;60641;53.556;9.914;2022-10-16T15:46:05;5.80;;;0.90;;
71606;SDS011;60641;53.556;9.914;2022-10-16T15:48:33;8.50;;;1.50;;
71606;SDS011;60641;53.556;9.914;2022-10-16T15:51:00;6.30;;;1.00;;
71606;SDS011;60641;53.556;9.914;2022-10-16T15:53:26;11.20;;;1.80;;
71606;SDS011;60641;53.556;9.914;2022-10-16T15:55:52;5.80;;;1.30;;
71606;SDS011;60641;53.556;9.914;2022-10-16T15:58:19;6.90;;;1.40;;
71606;SDS011;60641;53.556;9.914;2022-10-16T16:00:45;7.00;;;1.50;;
71606;SDS011;60641;53.556;9.914;2022-10-16T16:03:20;6.70;;;1.40;;
71606;SDS011;60641;53.556;9.914;2022-10-16T16:05:46;7.50;;;1.40;;
71606;SDS011;60641;53.556;9.914;2022-10-16T16:08:13;7.10;;;1.30;;
71606;SDS011;60641;53.556;9.914;2022-10-16T16:10:41;7.40;;;1.30;;
71606;SDS011;60641;53.556;9.914;2022-10-16T16:13:07;7.20;;;1.30;;
71606;SDS011;60641;53.556;9.914;2022-10-16T16:15:34;9.80;;;1.40;;
71606;SDS011;60641;53.556;9.914;2022-10-16T16:18:00;7.90;;;1.60;;
71606;SDS011;60641;53.556;9.914;2022-10-16T16:20:28;6.30;;;1.30;;
71606;SDS011;60641;53.556;9.914;2022-10-16T16:22:54;7.00;;;1.40;;
71606;SDS011;60641;53.556;9.914;2022-10-16T16:25:20;7.20;;;1.30;;
71606;SDS011;60641;53.556;9.914;2022-10-16T16:27:56;7.70;;;1.50;;
71606;SDS011;60641;53.556;9.914;2022-10-16T16:30:24;7.90;;;1.40;;
71606;SDS011;60641;53.556;9.914;2022-10-16T16:32:51;7.80;;;1.50;;
71606;SDS011;60641;53.556;9.914;2022-10-16T16:35:17;6.70;;;1.50;;
71606;SDS011;60641;53.556;9.914;2022-10-16T16:37:44;6.00;;;1.40;;
71606;SDS011;60641;53.556;9.914;2022-10-16T16:40:10;10.20;;;1.70;;
71606;SDS011;60641;53.556;9.914;2022-10-16T16:42:37;15.40;;;5.60;;
71606;SDS011;60641;53.556;9.914;2022-10-16T16:45:03;12.80;;;5.20;;
71606;SDS011;60641;53.556;9.914;2022-10-16T16:47:30;12.90;;;4.80;;
71606;SDS011;60641;53.556;9.914;2022-10-16T16:49:56;10.90;;;2.80;;
71606;SDS011;60641;53.556;9.914;2022-10-16T16:52:23;7.20;;;2.10;;
71606;SDS011;60641;53.556;9.914;2022-10-16T16:54:49;7.80;;;2.00;;
71606;SDS011;60641;53.556;9.914;2022-10-16T16:57:19;8.60;;;2.10;;
71606;SDS011;60641;53.556;9.914;2022-10-16T16:59:46;8.50;;;2.00;;
71606;SDS011;60641;53.556;9.914;2022-10-16T17:02:12;8.40;;;1.80;;
71606;SDS011;60641;53.556;9.914;2022-10-16T17:04:39;7.60;;;1.80;;
71606;SDS011;60641;53.556;9.914;2022-10-16T17:07:08;8.80;;;2.30;;
71606;SDS011;60641;53.556;9.914;2022-10-16T17:09:34;8.60;;;2.20;;
71606;SDS011;60641;53.556;9.914;2022-10-16T17:12:01;7.50;;;2.00;;
71606;SDS011;60641;53.556;9.914;2022-10-16T17:14:27;7.30;;;2.60;;
71606;SDS011;60641;53.556;9.914;2022-10-16T17:16:54;9.00;;;2.80;;
71606;SDS011;60641;53.556;9.914;2022-10-16T17:19:20;10.90;;;2.40;;
71606;SDS011;60641;53.556;9.914;2022-10-16T17:21:50;8.20;;;2.40;;
71606;SDS011;60641;53.556;9.914;2022-10-16T17:24:17;10.20;;;3.00;;
71606;SDS011;60641;53.556;9.914;2022-10-16T17:26:44;9.00;;;2.80;;
71606;SDS011;60641;53.556;9.914;2022-10-16T17:29:14;9.20;;;3.00;;
71606;SDS011;60641;53.556;9.914;2022-10-16T17:31:44;11.90;;;3.20;;
71606;SDS011;60641;53.556;9.914;2022-10-16T17:34:11;8.40;;;1.90;;
71606;SDS011;60641;53.556;9.914;2022-10-16T17:36:38;10.70;;;2.20;;
71606;SDS011;60641;53.556;9.914;2022-10-16T17:39:10;9.90;;;2.50;;
71606;SDS011;60641;53.556;9.914;2022-10-16T17:41:37;8.70;;;2.20;;
71606;SDS011;60641;53.556;9.914;2022-10-16T17:44:04;7.20;;;2.00;;
71606;SDS011;60641;53.556;9.914;2022-10-16T17:46:31;9.00;;;2.20;;
71606;SDS011;60641;53.556;9.914;2022-10-16T17:48:58;8.40;;;2.20;;
71606;SDS011;60641;53.556;9.914;2022-10-16T17:51:25;10.40;;;2.20;;
71606;SDS011;60641;53.556;9.914;2022-10-16T17:53:55;10.10;;;2.60;;
71606;SDS011;60641;53.556;9.914;2022-10-16T17:56:23;8.40;;;2.30;;
71606;SDS011;60641;53.556;9.914;2022-10-16T17:58:51;7.70;;;2.30;;
71606;SDS011;60641;53.556;9.914;2022-10-16T18:01:23;7.70;;;2.30;;
71606;SDS011;60641;53.556;9.914;2022-10-16T18:03:52;10.00;;;2.40;;
71606;SDS011;60641;53.556;9.914;2022-10-16T18:06:21;10.20;;;2.50;;
71606;SDS011;60641;53.556;9.914;2022-10-16T18:08:48;9.60;;;2.20;;
71606;SDS011;60641;53.556;9.914;2022-10-16T18:11:14;7.60;;;1.80;;
71606;SDS011;60641;53.556;9.914;2022-10-16T18:13:40;11.20;;;2.40;;
71606;SDS011;60641;53.556;9.914;2022-10-16T18:16:09;8.10;;;2.00;;
71606;SDS011;60641;53.556;9.914;2022-10-16T18:18:37;8.40;;;2.00;;
71606;SDS011;60641;53.556;9.914;2022-10-16T18:21:05;10.40;;;2.50;;
71606;SDS011;60641;53.556;9.914;2022-10-16T18:23:36;8.50;;;2.30;;
71606;SDS011;60641;53.556;9.914;2022-10-16T18:26:04;9.30;;;2.20;;
71606;SDS011;60641;53.556;9.914;2022-10-16T18:28:31;10.40;;;2.30;;
71606;SDS011;60641;53.556;9.914;2022-10-16T18:30:59;10.30;;;2.70;;
71606;SDS011;60641;53.556;9.914;2022-10-16T18:33:34;10.10;;;2.90;;
71606;SDS011;60641;53.556;9.914;2022-10-16T18:36:01;12.20;;;2.50;;
71606;SDS011;60641;53.556;9.914;2022-10-16T18:38:29;8.20;;;2.50;;
71606;SDS011;60641;53.556;9.914;2022-10-16T18:40:56;10.00;;;2.50;;
71606;SDS011;60641;53.556;9.914;2022-10-16T18:43:23;11.30;;;3.20;;
71606;SDS011;60641;53.556;9.914;2022-10-16T18:45:56;13.90;;;4.60;;
71606;SDS011;60641;53.556;9.914;2022-10-16T18:48:23;19.50;;;8.80;;
71606;SDS011;60641;53.556;9.914;2022-10-16T18:50:51;16.50;;;6.70;;
71606;SDS011;60641;53.556;9.914;2022-10-16T18:53:18;12.70;;;4.70;;
71606;SDS011;60641;53.556;9.914;2022-10-16T18:55:51;14.50;;;4.50;;
71606;SDS011;60641;53.556;9.914;2022-10-16T18:58:18;11.00;;;3.20;;
71606;SDS011;60641;53.556;9.914;2022-10-16T19:00:45;11.70;;;3.20;;
71606;SDS011;60641;53.556;9.914;2022-10-16T19:03:12;12.60;;;2.80;;
71606;SDS011;60641;53.556;9.914;2022-10-16T19:05:38;8.60;;;2.60;;
71606;SDS011;60641;53.556;9.914;2022-10-16T19:08:05;10.00;;;2.90;;
71606;SDS011;60641;53.556;9.914;2022-10-16T19:10:34;11.20;;;2.50;;
71606;SDS011;60641;53.556;9.914;2022-10-16T19:13:01;9.80;;;2.70;;
71606;SDS011;60641;53.556;9.914;2022-10-16T19:15:28;9.90;;;3.00;;
71606;SDS011;60641;53.556;9.914;2022-10-16T19:17:54;8.90;;;2.50;;
71606;SDS011;60641;53.556;9.914;2022-10-16T19:20:21;10.40;;;2.80;;
71606;SDS011;60641;53.556;9.914;2022-10-16T19:22:47;9.80;;;2.80;;
71606;SDS011;60641;53.556;9.914;2022-10-16T19:25:18;12.10;;;3.50;;
71606;SDS011;60641;53.556;9.914;2022-10-16T19:27:47;11.20;;;3.50;;
71606;SDS011;60641;53.556;9.914;2022-10-16T19:30:15;12.00;;;3.60;;
71606;SDS011;60641;53.556;9.914;2022-10-16T19:32:43;12.10;;;3.60;;
71606;SDS011;60641;53.556;9.914;2022-10-16T19:35:11;10.30;;;3.30;;
71606;SDS011;60641;53.556;9.914;2022-10-16T19:37:37;11.70;;;3.10;;
71606;SDS011;60641;53.556;9.914;2022-10-16T19:40:04;11.70;;;3.50;;
71606;SDS011;60641;53.556;9.914;2022-10-16T19:42:31;12.00;;;3.50;;
71606;SDS011;60641;53.556;9.914;2022-10-16T19:44:57;11.10;;;3.30;;
71606;SDS011;60641;53.556;9.914;2022-10-16T19:47:24;11.10;;;3.50;;
71606;SDS011;60641;53.556;9.914;2022-10-16T19:49:50;10.10;;;3.50;;
71606;SDS011;60641;53.556;9.914;2022-10-16T19:52:17;14.40;;;3.70;;
71606;SDS011;60641;53.556;9.914;2022-10-16T19:54:47;10.90;;;3.40;;
71606;SDS011;60641;53.556;9.914;2022-10-16T19:57:14;10.90;;;3.20;;
71606;SDS011;60641;53.556;9.914;2022-10-16T19:59:45;13.10;;;3.60;;
71606;SDS011;60641;53.556;9.914;2022-10-16T20:02:11;11.70;;;3.50;;
71606;SDS011;60641;53.556;9.914;2022-10-16T20:04:38;10.30;;;3.50;;
71606;SDS011;60641;53.556;9.914;2022-10-16T20:07:05;14.20;;;4.20;;
71606;SDS011;60641;53.556;9.914;2022-10-16T20:09:32;11.80;;;4.30;;
71606;SDS011;60641;53.556;9.914;2022-10-16T20:11:59;14.90;;;5.20;;
71606;SDS011;60641;53.556;9.914;2022-10-16T20:14:26;12.30;;;4.10;;
71606;SDS011;60641;53.556;9.914;2022-10-16T20:16:56;12.40;;;4.20;;
71606;SDS011;60641;53.556;9.914;2022-10-16T20:19:22;12.70;;;4.10;;
71606;SDS011;60641;53.556;9.914;2022-10-16T20:21:49;10.10;;;3.70;;
71606;SDS011;60641;53.556;9.914;2022-10-16T20:24:15;13.40;;;4.50;;
71606;SDS011;60641;53.556;9.914;2022-10-16T20:26:41;12.30;;;3.90;;
71606;SDS011;60641;53.556;9.914;2022-10-16T20:29:08;10.20;;;3.90;;
71606;SDS011;60641;53.556;9.914;2022-10-16T20:31:34;13.80;;;3.50;;
71606;SDS011;60641;53.556;9.914;2022-10-16T20:34:02;12.80;;;3.80;;
71606;SDS011;60641;53.556;9.914;2022-10-16T20:36:31;10.40;;;3.30;;
71606;SDS011;60641;53.556;9.914;2022-10-16T20:38:59;11.90;;;3.30;;